Time;durP1;ratioP1;P1;durP2;ratioP2;P2;SDS_P1;SDS_P2;PMS_P1;PMS_P2;Temp;Humidity;BMP_temperature;BMP_pressure;BME280_temperature;BME280_humidity;BME280_pressure;Samples;Min_cycle;Max_cycle;Signal;HPM_P1;HPM_P2
2022/08/07 00:00:11;;;;;;;5.38;4.35;;;13.20;99.90;;;;;;5056932;28;20043;-70
2022/08/07 00:02:37;;;;;;;4.85;4.35;;;13.10;99.90;;;;;;5058675;28;20033;-69
2022/08/07 00:05:03;;;;;;;5.22;4.55;;;13.20;99.90;;;;;;5058574;28;20444;-69
2022/08/07 00:07:29;;;;;;;6.00;5.05;;;13.20;99.90;;;;;;5057615;28;20394;-69
2022/08/07 00:09:55;;;;;;;5.43;4.57;;;13.10;99.90;;;;;;5063535;28;20052;-69
2022/08/07 00:12:20;;;;;;;2.85;2.65;;;13.10;99.90;;;;;;5062022;28;20094;-69
2022/08/07 00:14:46;;;;;;;3.80;3.50;;;13.10;99.90;;;;;;5061596;28;20040;-69
2022/08/07 00:17:11;;;;;;;1.73;1.63;;;13.00;99.90;;;;;;5062228;28;20071;-69
2022/08/07 00:19:37;;;;;;;5.00;3.70;;;12.90;99.90;;;;;;5061917;28;20483;-69
2022/08/07 00:22:03;;;;;;;7.18;4.40;;;12.80;99.90;;;;;;5058506;28;20044;-69
2022/08/07 00:24:29;;;;;;;4.22;3.83;;;12.80;99.90;;;;;;5054795;28;20584;-69
2022/08/07 00:26:54;;;;;;;4.68;4.28;;;12.70;99.90;;;;;;5059443;28;20402;-69
2022/08/07 00:29:24;;;;;;;5.57;4.68;;;12.70;99.90;;;;;;5062355;28;20532;-70
2022/08/07 00:31:53;;;;;;;6.95;4.65;;;12.70;99.90;;;;;;5059056;28;20071;-70
2022/08/07 00:34:18;;;;;;;5.85;5.13;;;12.60;99.90;;;;;;5058956;28;20029;-70
2022/08/07 00:36:44;;;;;;;7.25;4.90;;;12.60;99.90;;;;;;5063577;28;20043;-69
2022/08/07 00:39:11;;;;;;;6.13;5.30;;;12.60;99.90;;;;;;5056751;28;20140;-69
2022/08/07 00:41:38;;;;;;;6.22;4.88;;;12.60;99.90;;;;;;5058006;28;20516;-70
2022/08/07 00:44:04;;;;;;;5.45;4.57;;;12.70;99.90;;;;;;5062692;28;20047;-69
2022/08/07 00:46:31;;;;;;;6.60;4.70;;;12.70;99.90;;;;;;5061299;28;20044;-68
2022/08/07 00:49:00;;;;;;;6.32;4.88;;;12.70;99.90;;;;;;5065767;28;20510;-69
2022/08/07 00:51:27;;;;;;;5.85;5.07;;;12.70;99.90;;;;;;5064942;28;20074;-69
2022/08/07 00:53:53;;;;;;;6.95;5.15;;;12.70;99.90;;;;;;5066976;28;20076;-69
2022/08/07 00:56:20;;;;;;;5.10;4.60;;;12.70;99.90;;;;;;5064764;28;20533;-70
2022/08/07 00:58:46;;;;;;;4.10;3.70;;;12.70;99.90;;;;;;5064822;28;20063;-69
2022/08/07 01:01:11;;;;;;;8.13;4.15;;;12.70;99.90;;;;;;5061781;28;20478;-69
2022/08/07 01:03:37;;;;;;;5.28;4.60;;;12.60;99.90;;;;;;5059547;28;20123;-70
2022/08/07 01:06:04;;;;;;;6.25;5.07;;;12.60;99.90;;;;;;5066354;28;20570;-69
2022/08/07 01:08:30;;;;;;;9.25;5.47;;;12.60;99.90;;;;;;5065725;28;20041;-69
2022/08/07 01:10:56;;;;;;;6.05;5.45;;;12.60;99.90;;;;;;5064890;28;20062;-68
2022/08/07 01:13:21;;;;;;;5.05;4.57;;;12.70;99.90;;;;;;5062816;28;20502;-69
2022/08/07 01:15:49;;;;;;;6.05;4.85;;;12.60;99.90;;;;;;5058782;28;20619;-69
2022/08/07 01:18:15;;;;;;;2.58;2.17;;;12.60;99.90;;;;;;5067667;28;20076;-71
2022/08/07 01:20:47;;;;;;;2.20;2.00;;;12.60;99.90;;;;;;5063221;28;20040;-69
2022/08/07 01:23:13;;;;;;;3.30;3.00;;;12.50;99.90;;;;;;5065456;28;20045;-69
2022/08/07 01:25:39;;;;;;;3.70;3.40;;;12.50;99.90;;;;;;5064619;28;20089;-70
2022/08/07 01:28:05;;;;;;;6.50;4.65;;;12.50;99.90;;;;;;5065602;28;20440;-69
2022/08/07 01:30:31;;;;;;;9.52;4.95;;;12.60;99.90;;;;;;5061637;28;20044;-69
2022/08/07 01:32:58;;;;;;;8.30;6.05;;;12.60;99.90;;;;;;5064949;28;20131;-68
2022/08/07 01:35:24;;;;;;;7.25;5.13;;;12.60;99.90;;;;;;5068951;28;20036;-69
2022/08/07 01:37:51;;;;;;;2.72;2.53;;;12.60;99.90;;;;;;5063950;28;20510;-69
2022/08/07 01:40:19;;;;;;;3.08;2.83;;;12.70;99.90;;;;;;5064585;28;20033;-69
2022/08/07 01:42:45;;;;;;;3.67;2.78;;;12.70;99.90;;;;;;5067157;28;20025;-69
2022/08/07 01:45:11;;;;;;;7.32;4.70;;;12.70;99.90;;;;;;5067547;28;20084;-69
2022/08/07 01:47:37;;;;;;;8.32;5.80;;;12.70;99.90;;;;;;5063625;28;20430;-68
2022/08/07 01:50:04;;;;;;;6.68;5.97;;;12.70;99.90;;;;;;5060661;28;20059;-68
2022/08/07 01:52:31;;;;;;;9.68;5.75;;;12.80;99.90;;;;;;5063616;28;20634;-69
2022/08/07 01:54:59;;;;;;;7.53;6.28;;;12.80;99.90;;;;;;5064018;28;20128;-69
2022/08/07 01:57:28;;;;;;;7.68;6.30;;;12.80;99.90;;;;;;5062559;28;20033;-69
2022/08/07 02:00:03;;;;;;;6.95;6.25;;;12.90;99.90;;;;;;5060954;28;20036;-69
2022/08/07 02:02:45;;;;;;;7.82;5.28;;;12.90;99.90;;;;;;5061661;28;20132;-70
2022/08/07 02:05:15;;;;;;;5.95;5.25;;;12.90;99.90;;;;;;5067160;28;20486;-69
2022/08/07 02:07:52;;;;;;;6.25;5.65;;;12.90;99.90;;;;;;5077114;28;20067;-70
2022/08/07 02:10:22;;;;;;;6.20;5.35;;;13.00;99.90;;;;;;5063407;28;20036;-69
2022/08/07 02:12:49;;;;;;;6.38;5.38;;;13.00;99.90;;;;;;5065104;28;20128;-69
2022/08/07 02:15:19;;;;;;;5.78;5.28;;;12.90;99.90;;;;;;5064880;28;20036;-70
2022/08/07 02:17:47;;;;;;;6.38;5.65;;;12.90;99.90;;;;;;5065197;28;20052;-69
2022/08/07 02:20:14;;;;;;;6.72;5.20;;;12.90;99.90;;;;;;5078056;28;20044;-69
2022/08/07 02:22:40;;;;;;;6.35;5.22;;;12.90;99.90;;;;;;5066040;28;20044;-69
2022/08/07 02:25:07;;;;;;;6.85;5.68;;;12.90;99.90;;;;;;5060599;28;20124;-69
2022/08/07 02:27:35;;;;;;;8.60;5.63;;;12.90;99.90;;;;;;5059854;28;20044;-71
2022/08/07 02:30:03;;;;;;;9.73;5.95;;;12.80;99.90;;;;;;5065495;28;20036;-69
2022/08/07 02:32:30;;;;;;;6.30;5.70;;;12.80;99.90;;;;;;5064918;28;20155;-69
2022/08/07 02:34:57;;;;;;;5.13;4.55;;;12.80;99.90;;;;;;5058723;28;20044;-69
2022/08/07 02:37:25;;;;;;;5.65;5.13;;;12.70;99.90;;;;;;5064498;28;20032;-69
2022/08/07 02:39:53;;;;;;;7.72;5.47;;;12.60;99.90;;;;;;5066107;28;20044;-69
2022/08/07 02:42:19;;;;;;;8.95;5.85;;;12.60;99.90;;;;;;5063154;28;20052;-69
2022/08/07 02:44:48;;;;;;;6.95;5.88;;;12.50;99.90;;;;;;5064471;28;20052;-69
2022/08/07 02:47:16;;;;;;;8.10;5.88;;;12.60;99.90;;;;;;5064070;28;20035;-69
2022/08/07 02:49:43;;;;;;;6.78;6.05;;;12.60;99.90;;;;;;5061936;28;20039;-69
2022/08/07 02:52:26;;;;;;;6.72;6.03;;;12.60;99.90;;;;;;5061158;28;20052;-69
2022/08/07 02:54:54;;;;;;;8.05;6.30;;;12.60;99.90;;;;;;5059792;28;20125;-68
2022/08/07 02:57:20;;;;;;;7.22;6.25;;;12.50;99.90;;;;;;5064436;28;20041;-68
2022/08/07 02:59:49;;;;;;;5.03;3.20;;;12.50;99.90;;;;;;5058556;28;20399;-69
2022/08/07 03:02:15;;;;;;;7.97;6.28;;;12.50;99.90;;;;;;5064025;28;20127;-69
2022/08/07 03:04:44;;;;;;;7.13;6.40;;;12.50;99.90;;;;;;5062453;28;20048;-69
2022/08/07 03:07:11;;;;;;;8.05;6.40;;;12.50;99.90;;;;;;5063148;28;20043;-69
2022/08/07 03:09:37;;;;;;;7.40;5.80;;;12.50;99.90;;;;;;5062927;28;20171;-68
2022/08/07 03:12:07;;;;;;;9.75;5.65;;;12.50;99.90;;;;;;5066273;28;20210;-69
2022/08/07 03:14:37;;;;;;;8.98;6.22;;;12.50;99.90;;;;;;5061083;28;20101;-69
2022/08/07 03:17:04;;;;;;;7.20;5.78;;;12.50;99.90;;;;;;5063774;28;20041;-69
2022/08/07 03:19:30;;;;;;;5.63;5.10;;;12.50;99.90;;;;;;5056479;28;20394;-69
2022/08/07 03:21:56;;;;;;;6.63;5.93;;;12.40;99.90;;;;;;5065770;28;20145;-69
2022/08/07 03:24:22;;;;;;;7.00;5.85;;;12.40;99.90;;;;;;5063264;28;20493;-69
2022/08/07 03:26:50;;;;;;;7.07;6.10;;;12.40;99.90;;;;;;5064035;28;20040;-69
2022/08/07 03:29:17;;;;;;;6.35;5.72;;;12.40;99.90;;;;;;5078881;28;20094;-69
2022/08/07 03:31:45;;;;;;;9.85;6.65;;;12.30;99.90;;;;;;5061124;28;20044;-69
2022/08/07 03:34:13;;;;;;;7.45;5.85;;;12.30;99.90;;;;;;5061860;28;20492;-69
2022/08/07 03:36:39;;;;;;;8.13;6.03;;;12.30;99.90;;;;;;5057736;28;20037;-69
2022/08/07 03:39:10;;;;;;;6.22;5.63;;;12.20;99.90;;;;;;5058451;28;20047;-69
2022/08/07 03:41:37;;;;;;;8.63;5.60;;;12.20;99.90;;;;;;5064360;28;20040;-68
2022/08/07 03:44:03;;;;;;;6.30;5.70;;;12.20;99.90;;;;;;5074332;28;20124;-69
2022/08/07 03:46:30;;;;;;;6.50;5.85;;;12.20;99.90;;;;;;5062061;28;20059;-69
2022/08/07 03:48:56;;;;;;;7.10;5.80;;;12.20;99.90;;;;;;5058060;28;20094;-69
2022/08/07 03:51:23;;;;;;;8.20;6.47;;;12.20;99.90;;;;;;5062062;28;20440;-67
2022/08/07 03:53:49;;;;;;;6.68;5.93;;;12.20;99.90;;;;;;5059273;28;20387;-69
2022/08/07 03:56:19;;;;;;;7.32;6.20;;;12.20;99.90;;;;;;5064984;28;20047;-69
2022/08/07 03:58:45;;;;;;;7.22;6.47;;;12.20;99.90;;;;;;5057143;28;20420;-69
2022/08/07 04:01:12;;;;;;;7.95;6.28;;;12.20;99.90;;;;;;5078803;28;20045;-69
2022/08/07 04:03:39;;;;;;;8.40;7.43;;;12.10;99.90;;;;;;5059855;28;20103;-68
2022/08/07 04:06:09;;;;;;;10.02;8.25;;;12.10;99.90;;;;;;5062234;28;20477;-69
2022/08/07 04:08:35;;;;;;;10.48;8.00;;;12.10;99.90;;;;;;5063983;28;20398;-69
2022/08/07 04:11:01;;;;;;;4.78;3.10;;;12.10;99.90;;;;;;5059780;28;20521;-69
2022/08/07 04:13:27;;;;;;;4.50;3.40;;;12.00;99.90;;;;;;5061704;28;20048;-69
2022/08/07 04:15:54;;;;;;;6.90;6.20;;;11.90;99.90;;;;;;5059152;28;20099;-69
2022/08/07 04:18:20;;;;;;;4.13;3.72;;;11.90;99.90;;;;;;5062663;28;20538;-69
2022/08/07 04:20:46;;;;;;;5.53;4.00;;;11.90;99.90;;;;;;5057351;28;20147;-69
2022/08/07 04:23:12;;;;;;;6.28;5.55;;;11.90;99.90;;;;;;5065517;28;20098;-69
2022/08/07 04:25:39;;;;;;;5.78;4.90;;;11.90;99.90;;;;;;5064056;28;20482;-68
2022/08/07 04:28:06;;;;;;;4.75;4.35;;;11.90;99.90;;;;;;5081337;28;20037;-69
2022/08/07 04:30:34;;;;;;;6.20;4.88;;;11.90;99.90;;;;;;5063294;28;20771;-69
2022/08/07 04:33:00;;;;;;;7.22;5.60;;;11.90;99.90;;;;;;5065319;28;20044;-69
2022/08/07 04:35:26;;;;;;;8.75;5.72;;;11.90;99.90;;;;;;5062377;28;20433;-69
2022/08/07 04:37:52;;;;;;;7.07;6.32;;;11.90;99.90;;;;;;5066089;28;20558;-69
2022/08/07 04:40:18;;;;;;;6.88;5.57;;;11.90;99.90;;;;;;5063971;28;20048;-69
2022/08/07 04:42:44;;;;;;;5.90;5.30;;;11.90;99.90;;;;;;5061473;28;20501;-69
2022/08/07 04:45:10;;;;;;;7.05;6.10;;;11.90;99.90;;;;;;5067406;28;20049;-69
2022/08/07 04:48:05;;;;;;;6.68;5.97;;;11.90;99.90;;;;;;5085102;28;20032;-69
2022/08/07 04:50:40;;;;;;;6.80;5.75;;;11.90;99.90;;;;;;5076614;28;20044;-67
2022/08/07 04:53:09;;;;;;;7.15;6.45;;;12.00;99.90;;;;;;5067255;28;20037;-69
2022/08/07 04:55:58;;;;;;;5.28;4.78;;;12.00;99.90;;;;;;5065251;28;20170;-68
2022/08/07 04:58:45;;;;;;;5.53;4.38;;;12.00;99.90;;;;;;5064425;28;20398;-69
2022/08/07 05:01:23;;;;;;;3.35;2.90;;;12.00;99.90;;;;;;5067187;28;20478;-69
2022/08/07 05:03:56;;;;;;;5.53;5.03;;;12.00;99.90;;;;;;5066087;28;20032;-69
2022/08/07 05:06:30;;;;;;;7.97;6.95;;;12.00;99.90;;;;;;5030046;28;1018701;-69
2022/08/07 05:09:31;;;;;;;9.27;7.93;;;11.90;99.90;;;;;;5067180;28;20119;-69
2022/08/07 05:12:02;;;;;;;9.52;7.50;;;12.00;99.90;;;;;;5068047;28;20048;-69
2022/08/07 05:14:32;;;;;;;5.43;4.32;;;12.00;99.90;;;;;;5060148;28;20071;-69
2022/08/07 05:17:02;;;;;;;4.13;3.65;;;12.10;99.90;;;;;;5062172;28;20044;-69
2022/08/07 05:19:45;;;;;;;5.57;4.00;;;12.10;99.90;;;;;;5066563;28;20040;-69
2022/08/07 05:22:13;;;;;;;5.35;4.20;;;12.00;99.90;;;;;;5066564;28;20082;-68
2022/08/07 05:24:40;;;;;;;6.28;4.70;;;12.10;99.90;;;;;;5061533;28;20037;-68
2022/08/07 05:27:08;;;;;;;6.40;5.60;;;12.10;99.90;;;;;;5063009;28;20398;-70
2022/08/07 05:29:38;;;;;;;6.47;5.20;;;12.10;99.90;;;;;;5065747;28;20086;-69
2022/08/07 05:32:05;;;;;;;7.13;5.70;;;12.10;99.90;;;;;;5064239;28;20044;-69
2022/08/07 05:34:33;;;;;;;6.78;6.00;;;12.20;99.90;;;;;;5064069;28;20040;-69
2022/08/07 05:36:59;;;;;;;7.53;6.38;;;12.20;99.90;;;;;;5064870;28;20048;-68
2022/08/07 05:39:25;;;;;;;8.43;6.53;;;12.30;99.90;;;;;;5065404;28;20086;-69
2022/08/07 05:41:51;;;;;;;7.72;6.93;;;12.30;99.90;;;;;;5065203;28;20049;-70
2022/08/07 05:44:18;;;;;;;8.50;5.68;;;12.30;99.90;;;;;;5064500;28;20058;-69
2022/08/07 05:46:52;;;;;;;7.72;5.80;;;12.40;99.90;;;;;;5062881;28;20036;-69
2022/08/07 05:49:19;;;;;;;8.90;7.25;;;12.40;99.90;;;;;;5064223;28;20494;-69
2022/08/07 05:51:45;;;;;;;8.57;7.57;;;12.50;99.90;;;;;;5064908;28;20526;-67
2022/08/07 05:54:11;;;;;;;9.35;6.78;;;12.60;99.90;;;;;;5067426;28;20036;-69
2022/08/07 05:56:39;;;;;;;10.70;7.43;;;12.60;99.90;;;;;;5064794;28;20067;-68
2022/08/07 05:59:08;;;;;;;8.27;7.45;;;12.70;99.90;;;;;;5067191;28;20039;-70
2022/08/07 06:01:37;;;;;;;11.20;8.10;;;12.80;99.90;;;;;;5080323;28;20036;-69
2022/08/07 06:04:03;;;;;;;10.00;7.63;;;12.90;99.90;;;;;;5062951;28;20075;-69
2022/08/07 06:06:31;;;;;;;8.95;7.85;;;12.90;99.90;;;;;;5061438;28;20539;-69
2022/08/07 06:08:58;;;;;;;8.98;8.02;;;13.00;99.90;;;;;;5065073;28;20044;-69
2022/08/07 06:11:24;;;;;;;10.93;8.10;;;13.10;99.90;;;;;;5076595;28;20036;-69
2022/08/07 06:13:50;;;;;;;11.70;9.52;;;13.20;99.90;;;;;;5065920;28;20132;-69
2022/08/07 06:16:18;;;;;;;13.23;10.40;;;13.30;99.90;;;;;;5053917;28;20044;-68
2022/08/07 06:18:45;;;;;;;15.02;10.02;;;13.40;99.90;;;;;;5075542;28;20093;-69
2022/08/07 06:21:12;;;;;;;10.75;9.63;;;13.50;99.90;;;;;;5064158;28;20052;-69
2022/08/07 06:23:38;;;;;;;14.57;11.30;;;13.60;99.90;;;;;;5056052;28;20047;-70
2022/08/07 06:26:05;;;;;;;14.77;12.70;;;13.70;99.90;;;;;;5064808;28;20498;-68
2022/08/07 06:28:31;;;;;;;17.83;13.38;;;13.80;99.90;;;;;;5063939;28;20086;-68
2022/08/07 06:30:56;;;;;;;23.98;14.05;;;13.90;99.90;;;;;;5062317;28;20029;-68
2022/08/07 06:33:23;;;;;;;18.23;13.80;;;14.00;99.90;;;;;;5066200;28;20068;-68
2022/08/07 06:35:49;;;;;;;20.35;14.57;;;14.10;99.90;;;;;;5061693;28;20040;-67
2022/08/07 06:38:15;;;;;;;21.67;14.88;;;14.20;99.90;;;;;;5069017;28;20039;-70
2022/08/07 06:40:45;;;;;;;17.60;12.65;;;14.40;99.90;;;;;;5069622;28;20070;-69
2022/08/07 06:43:12;;;;;;;20.77;13.80;;;14.50;99.90;;;;;;5072544;28;20044;-69
2022/08/07 06:45:38;;;;;;;18.92;14.07;;;14.60;99.90;;;;;;5081221;28;20033;-70
2022/08/07 06:48:05;;;;;;;16.65;13.70;;;14.70;99.90;;;;;;5070843;28;20048;-70
2022/08/07 06:50:33;;;;;;;18.02;13.65;;;14.80;99.90;;;;;;5067613;28;20046;-69
2022/08/07 06:53:01;;;;;;;17.13;13.23;;;15.00;99.90;;;;;;5063384;28;20051;-69
2022/08/07 06:55:29;;;;;;;19.20;13.63;;;15.10;99.90;;;;;;5066421;28;20032;-69
2022/08/07 06:57:58;;;;;;;16.65;13.30;;;15.20;99.90;;;;;;5068948;28;20071;-69
2022/08/07 07:00:26;;;;;;;18.60;13.48;;;15.40;99.90;;;;;;5064605;28;20121;-68
2022/08/07 07:02:53;;;;;;;14.52;11.40;;;15.60;99.90;;;;;;5059176;28;20119;-67
2022/08/07 07:05:20;;;;;;;18.08;12.75;;;15.60;99.90;;;;;;5064391;28;20486;-68
2022/08/07 07:07:46;;;;;;;14.40;12.23;;;15.80;99.90;;;;;;5062469;28;20048;-69
2022/08/07 07:10:13;;;;;;;16.42;11.88;;;15.90;99.90;;;;;;5064592;28;20043;-68
2022/08/07 07:12:42;;;;;;;13.48;10.68;;;16.00;99.90;;;;;;5062173;28;20047;-72
2022/08/07 07:15:19;;;;;;;12.02;9.05;;;16.20;99.90;;;;;;5060573;28;20048;-70
2022/08/07 07:17:45;;;;;;;8.10;6.55;;;16.30;99.90;;;;;;5070927;28;20118;-72
2022/08/07 07:20:16;;;;;;;9.32;7.60;;;16.40;99.90;;;;;;5059619;28;20082;-68
2022/08/07 07:22:44;;;;;;;9.48;7.22;;;16.50;99.90;;;;;;5061373;28;20052;-68
2022/08/07 07:25:11;;;;;;;8.05;7.13;;;16.60;99.90;;;;;;5065074;28;20041;-67
2022/08/07 07:27:47;;;;;;;12.52;7.15;;;16.80;99.90;;;;;;5064788;28;20138;-68
2022/08/07 07:30:13;;;;;;;8.05;6.57;;;17.00;99.90;;;;;;5071211;28;20037;-68
2022/08/07 07:32:40;;;;;;;7.30;6.45;;;17.10;99.90;;;;;;5062904;28;20037;-68
2022/08/07 07:35:10;;;;;;;10.23;7.10;;;17.30;99.90;;;;;;5075270;28;20478;-68
2022/08/07 07:37:38;;;;;;;10.02;6.75;;;17.40;99.90;;;;;;5060352;28;20032;-68
2022/08/07 07:40:13;;;;;;;8.40;7.32;;;17.60;99.90;;;;;;5058587;28;20401;-67
2022/08/07 07:42:40;;;;;;;7.63;6.82;;;17.70;99.90;;;;;;5061623;28;20044;-67
2022/08/07 07:45:07;;;;;;;6.97;5.32;;;17.80;99.90;;;;;;5060851;28;20491;-68
2022/08/07 07:47:39;;;;;;;8.32;5.95;;;17.90;99.90;;;;;;5062565;28;20525;-68
2022/08/07 07:50:07;;;;;;;7.40;5.65;;;18.00;99.90;;;;;;5060662;28;20127;-67
2022/08/07 07:52:35;;;;;;;6.03;5.22;;;18.20;99.90;;;;;;5062485;28;20037;-67
2022/08/07 07:55:03;;;;;;;7.15;5.90;;;18.30;99.90;;;;;;5058648;28;20060;-67
2022/08/07 07:57:30;;;;;;;8.05;6.30;;;18.40;99.90;;;;;;5063384;28;20138;-67
2022/08/07 07:59:57;;;;;;;7.30;5.95;;;18.50;99.90;;;;;;5060254;28;20105;-66
2022/08/07 08:02:25;;;;;;;7.53;5.90;;;18.70;99.90;;;;;;5064023;28;20040;-68
2022/08/07 08:04:53;;;;;;;5.88;5.38;;;18.70;99.90;;;;;;5065661;28;20554;-68
2022/08/07 08:07:18;;;;;;;6.15;5.32;;;18.80;99.90;;;;;;5066184;28;21234;-68
2022/08/07 08:09:49;;;;;;;6.97;5.25;;;18.90;99.90;;;;;;5058827;28;20685;-68
2022/08/07 08:12:16;;;;;;;7.00;5.40;;;18.90;99.90;;;;;;5078720;28;20123;-70
2022/08/07 08:14:42;;;;;;;7.53;5.32;;;19.00;99.90;;;;;;5064742;28;20086;-68
2022/08/07 08:17:11;;;;;;;8.43;5.25;;;19.10;99.90;;;;;;5074559;28;20044;-68
2022/08/07 08:19:38;;;;;;;3.75;2.70;;;19.30;99.90;;;;;;5065485;28;20100;-69
2022/08/07 08:27:39;;;;;;;3.83;2.63;;;19.60;99.90;;;;;;5069189;28;20124;-70
2022/08/07 08:30:06;;;;;;;2.72;2.53;;;19.60;99.90;;;;;;5062085;28;20048;-70
2022/08/07 08:32:38;;;;;;;4.40;2.95;;;19.80;99.90;;;;;;5053345;28;20071;-70
2022/08/07 08:35:07;;;;;;;4.20;3.15;;;19.90;99.90;;;;;;5075563;28;20044;-70
2022/08/07 08:37:46;;;;;;;3.90;3.15;;;20.00;99.90;;;;;;5064701;28;20465;-70
2022/08/07 08:40:22;;;;;;;4.60;3.20;;;20.10;99.90;;;;;;5072688;28;20070;-69
2022/08/07 08:43:11;;;;;;;4.03;3.50;;;20.20;99.90;;;;;;5068644;28;20112;-70
2022/08/07 08:45:43;;;;;;;5.22;4.20;;;20.30;99.90;;;;;;5071440;28;20383;-69
2022/08/07 08:48:09;;;;;;;;;;;20.40;99.90;;;;;;5062069;28;20120;-70
2022/08/07 08:50:43;;;;;;;4.93;3.63;;;20.60;99.90;;;;;;5069024;28;20002;-70
2022/08/07 08:53:29;;;;;;;6.82;4.05;;;20.80;99.90;;;;;;5066403;28;20054;-70
2022/08/07 08:56:11;;;;;;;4.13;3.63;;;20.70;98.20;;;;;;5068369;28;20044;-69
2022/08/07 08:58:40;;;;;;;7.57;3.90;;;20.80;98.60;;;;;;5078263;28;20078;-70
2022/08/07 09:01:16;;;;;;;4.05;3.53;;;21.00;99.70;;;;;;5069666;28;20508;-69
2022/08/07 09:04:05;;;;;;;6.00;3.78;;;21.10;99.90;;;;;;5086268;28;20509;-70
2022/08/07 09:06:51;;;;;;;6.50;4.20;;;21.40;99.60;;;;;;5073164;28;20047;-70
2022/08/07 09:09:43;;;;;;;7.28;3.92;;;21.60;99.10;;;;;;5070090;28;20541;-70
2022/08/07 09:12:38;;;;;;;4.93;4.00;;;21.80;98.70;;;;;;5067518;28;20499;-70
2022/08/07 09:15:18;;;;;;;4.57;4.18;;;22.00;98.10;;;;;;5068844;28;20071;-70
2022/08/07 09:18:21;;;;;;;4.28;3.88;;;22.10;97.90;;;;;;5076162;28;20508;-70
2022/08/07 09:20:46;;;;;;;;;;;22.10;96.40;;;;;;5063078;28;20068;-70
2022/08/07 09:23:24;;;;;;;4.60;4.15;;;22.10;98.10;;;;;;5069022;28;19962;-70
2022/08/07 09:26:24;;;;;;;4.57;3.72;;;21.90;95.60;;;;;;5063529;28;20469;-70
2022/08/07 09:28:57;;;;;;;5.78;4.05;;;21.80;96.60;;;;;;5062096;28;20056;-70
2022/08/07 09:31:49;;;;;;;4.95;4.30;;;21.60;94.60;;;;;;5072723;28;20052;-70
2022/08/07 09:34:28;;;;;;;7.00;3.70;;;21.70;95.40;;;;;;5063346;28;20101;-70
2022/08/07 09:37:10;;;;;;;6.30;3.83;;;21.70;94.20;;;;;;5072551;28;20379;-71
2022/08/07 09:39:57;;;;;;;5.40;3.60;;;21.80;94.50;;;;;;5056508;28;20119;-71
2022/08/07 09:42:42;;;;;;;6.90;3.67;;;22.20;92.80;;;;;;5071049;28;20069;-71
2022/08/07 09:45:20;;;;;;;5.53;3.45;;;22.30;91.50;;;;;;5076516;28;20046;-71
2022/08/07 09:48:00;;;;;;;4.18;3.40;;;22.50;94.20;;;;;;5079781;28;20503;-71
2022/08/07 09:50:59;;;;;;;3.42;3.13;;;22.60;94.20;;;;;;5070303;28;20426;-71
2022/08/07 09:53:26;;;;;;;3.55;2.33;;;22.80;92.10;;;;;;5087564;28;20131;-71
2022/08/07 09:56:20;;;;;;;3.78;2.60;;;22.70;87.80;;;;;;5074696;28;20037;-71
2022/08/07 09:59:08;;;;;;;2.55;2.35;;;22.80;87.20;;;;;;5071563;28;20395;-70
2022/08/07 10:02:18;;;;;;;3.83;2.10;;;23.20;90.20;;;;;;5063876;28;20055;-71
2022/08/07 10:05:15;;;;;;;4.68;2.30;;;23.40;85.50;;;;;;5064025;28;20102;-71
2022/08/07 10:08:16;;;;;;;2.35;1.98;;;23.50;85.00;;;;;;5077494;28;20481;-71
2022/08/07 10:11:12;;;;;;;2.97;2.00;;;23.70;83.70;;;;;;5073233;28;20410;-71
2022/08/07 10:13:38;;;;;;;2.30;2.03;;;23.60;79.10;;;;;;5082713;28;20505;-71
2022/08/07 10:16:37;;;;;;;3.85;2.47;;;23.60;80.80;;;;;;5065373;28;20042;-71
2022/08/07 10:19:27;;;;;;;3.13;2.35;;;23.90;77.10;;;;;;5065651;28;20422;-71
2022/08/07 10:22:24;;;;;;;2.22;1.88;;;24.30;77.00;;;;;;5082717;28;20612;-72
2022/08/07 10:24:53;;;;;;;3.35;1.80;;;24.40;78.50;;;;;;5074345;28;20413;-71
2022/08/07 10:28:04;;;;;;;4.55;2.25;;;24.50;79.90;;;;;;5057798;28;20755;-69
2022/08/07 10:30:54;;;;;;;5.05;2.45;;;24.30;74.70;;;;;;5041382;28;20368;-72
2022/08/07 10:33:36;;;;;;;2.35;1.67;;;24.50;75.20;;;;;;5045833;28;21731;-71
2022/08/07 10:36:20;;;;;;;4.13;1.60;;;24.60;72.40;;;;;;5051122;28;20178;-72
2022/08/07 10:39:01;;;;;;;2.25;1.60;;;24.60;68.10;;;;;;5060117;28;20033;-71
2022/08/07 10:41:40;;;;;;;2.38;1.60;;;24.80;68.40;;;;;;5066165;28;20036;-71
2022/08/07 10:44:25;;;;;;;3.75;1.67;;;25.00;67.10;;;;;;5081534;28;20403;-72
2022/08/07 10:47:16;;;;;;;3.30;1.50;;;24.80;69.30;;;;;;5076064;28;20051;-72
2022/08/07 10:50:12;;;;;;;2.33;1.30;;;25.00;66.50;;;;;;5053039;28;20494;-71
2022/08/07 10:53:00;;;;;;;1.98;1.45;;;24.80;63.30;;;;;;5050230;28;20414;-71
2022/08/07 10:55:32;;;;;;;2.42;1.50;;;24.40;63.10;;;;;;5063845;28;20448;-72
2022/08/07 10:58:07;;;;;;;2.63;1.50;;;24.40;62.40;;;;;;5037744;28;20684;-71
2022/08/07 11:00:42;;;;;;;2.13;1.60;;;24.50;64.20;;;;;;5040368;28;20929;-72
2022/08/07 11:03:18;;;;;;;1.60;1.50;;;24.70;64.90;;;;;;5056631;28;20560;-70
2022/08/07 11:06:07;;;;;;;1.52;1.33;;;25.00;65.50;;;;;;5063333;28;20486;-71
2022/08/07 11:08:41;;;;;;;2.17;1.30;;;25.20;62.70;;;;;;5064315;28;20387;-71
2022/08/07 11:11:30;;;;;;;3.45;1.48;;;25.50;62.00;;;;;;5078201;28;20039;-71
2022/08/07 11:14:11;;;;;;;2.95;1.50;;;25.70;62.70;;;;;;5073718;28;20052;-70
2022/08/07 11:16:47;;;;;;;1.85;1.40;;;25.80;62.20;;;;;;5064144;28;20071;-71
2022/08/07 11:19:19;;;;;;;2.80;1.52;;;26.00;58.10;;;;;;5057762;28;20059;-71
2022/08/07 11:22:22;;;;;;;3.15;1.60;;;26.10;61.20;;;;;;5060338;28;20410;-72
2022/08/07 11:25:02;;;;;;;3.17;1.30;;;26.30;57.50;;;;;;5078182;28;20067;-71
2022/08/07 11:27:47;;;;;;;1.75;1.20;;;26.20;56.40;;;;;;5060830;28;20043;-72
2022/08/07 11:30:24;;;;;;;1.80;1.40;;;26.10;57.70;;;;;;5074115;28;20059;-73
2022/08/07 11:33:16;;;;;;;2.83;1.23;;;26.10;55.40;;;;;;5062215;28;20091;-72
2022/08/07 11:36:09;;;;;;;1.88;1.08;;;26.10;57.30;;;;;;5078117;28;20028;-71
2022/08/07 11:38:48;;;;;;;1.95;1.20;;;25.60;50.50;;;;;;5058312;28;20064;-72
2022/08/07 11:41:21;;;;;;;2.38;1.17;;;25.60;54.70;;;;;;5061349;28;20036;-72
2022/08/07 11:44:12;;;;;;;2.45;1.17;;;25.50;53.50;;;;;;5041366;28;20037;-72
2022/08/07 11:47:23;;;;;;;2.45;1.30;;;25.50;56.00;;;;;;5060450;28;20109;-71
2022/08/07 11:50:17;;;;;;;2.72;1.10;;;25.50;57.50;;;;;;5077307;28;20102;-71
2022/08/07 11:52:54;;;;;;;2.28;1.40;;;25.60;57.60;;;;;;5046164;28;20036;-72
2022/08/07 11:55:52;;;;;;;1.60;1.20;;;25.70;55.10;;;;;;5058015;28;20110;-72
2022/08/07 11:58:26;;;;;;;1.95;1.20;;;25.80;56.20;;;;;;5062648;28;20098;-72
2022/08/07 12:01:19;;;;;;;2.47;1.00;;;25.90;54.30;;;;;;5056736;28;20043;-72
2022/08/07 12:04:05;;;;;;;1.48;1.15;;;25.90;53.00;;;;;;5058558;28;20048;-72
2022/08/07 12:06:48;;;;;;;1.23;1.10;;;25.90;53.00;;;;;;5074346;28;20179;-71
2022/08/07 12:09:36;;;;;;;5.13;1.15;;;25.90;49.40;;;;;;5061037;28;20064;-71
2022/08/07 12:12:11;;;;;;;1.92;1.20;;;25.50;51.00;;;;;;5059018;28;20040;-72
2022/08/07 12:15:04;;;;;;;1.80;1.30;;;25.30;53.00;;;;;;5058839;28;20040;-72
2022/08/07 12:17:48;;;;;;;2.70;1.15;;;25.40;55.80;;;;;;5064816;28;20044;-73
2022/08/07 12:20:41;;;;;;;1.42;1.33;;;25.60;52.50;;;;;;5057284;28;20044;-74
2022/08/07 12:23:45;;;;;;;1.48;1.20;;;25.60;51.60;;;;;;5057962;28;20371;-75
2022/08/07 12:26:23;;;;;;;1.48;1.20;;;25.90;54.70;;;;;;5062864;28;20047;-74
2022/08/07 12:29:17;;;;;;;1.58;1.30;;;26.20;53.70;;;;;;5060465;28;20036;-73
2022/08/07 12:31:55;;;;;;;3.40;1.30;;;26.40;54.40;;;;;;5064697;28;20382;-73
2022/08/07 12:34:25;;;;;;;2.42;1.50;;;26.70;55.50;;;;;;5062415;28;20033;-74
2022/08/07 12:36:53;;;;;;;5.28;1.50;;;26.90;55.40;;;;;;5066078;28;20060;-71
2022/08/07 12:39:20;;;;;;;1.58;1.42;;;27.10;55.20;;;;;;5064034;28;20127;-72
2022/08/07 12:41:46;;;;;;;2.42;1.55;;;27.20;53.90;;;;;;5061152;28;20082;-72
2022/08/07 12:44:13;;;;;;;1.75;1.30;;;27.40;53.40;;;;;;5064462;28;20040;-72
2022/08/07 12:46:59;;;;;;;1.52;1.40;;;27.50;54.80;;;;;;5061155;28;20033;-76
2022/08/07 12:49:49;;;;;;;1.92;1.42;;;27.70;54.00;;;;;;5063793;28;20074;-73
2022/08/07 12:52:27;;;;;;;1.45;1.35;;;27.80;53.60;;;;;;5059531;28;20071;-73
2022/08/07 12:55:23;;;;;;;1.70;1.20;;;27.90;54.50;;;;;;5077254;28;20032;-72
2022/08/07 12:57:50;;;;;;;2.05;1.20;;;27.90;48.90;;;;;;5079758;28;20097;-71
2022/08/07 13:00:16;;;;;;;2.83;1.50;;;28.00;50.60;;;;;;5049583;28;20068;-72
2022/08/07 13:03:06;;;;;;;5.38;1.33;;;28.10;49.90;;;;;;5061212;28;20068;-73
2022/08/07 13:05:50;;;;;;;2.97;1.30;;;28.10;50.40;;;;;;5065576;28;20072;-71
2022/08/07 13:08:44;;;;;;;1.85;1.35;;;28.10;50.40;;;;;;5064315;28;20060;-71
2022/08/07 13:11:23;;;;;;;3.40;1.50;;;28.30;52.30;;;;;;5061444;28;20132;-71
2022/08/07 13:14:46;;;;;;;2.42;1.20;;;28.50;52.30;;;;;;5080034;28;20044;-72
2022/08/07 13:17:22;;;;;;;2.95;1.02;;;28.70;51.40;;;;;;5060001;28;20048;-71
2022/08/07 13:20:01;;;;;;;0.90;0.90;;;29.00;49.30;;;;;;5081961;28;20498;-71
2022/08/07 13:22:54;;;;;;;1.33;1.05;;;29.00;48.20;;;;;;5062444;28;20060;-72